Airfield :
LOGIN :

Register | Disclaimer

   EN    FR    IT 

 










Legend :    VFR   Marginal VFR   IFR   Intensive IFR   Very Intensive IFR
Visi :
Ceiling :
>= 8 km
>= 3000ft
5 to 8 km
1000 to 3000 ft
1500m to 5 km
500 to 1000 ft
800 to 1500m
200 to 500 ft
< 800m
< 200 ft
Symbols :   Thunderstorms  Fog  Heavy snow  Heavy precipitations  Wind > 20 kt
SIGMETs :     Misc.  Thunderstorms  Icing  Turbulence  Mountain Waves  Volcanic Ashes






- Airport Elevation : 511 ft
- IATA code : LHA


EDTL - Lahr Schwarzwald

CURRENT METAR :
  • 061820Z VRB02KT CAVOK 01/M02 Q1036

EXPIRED METARs :
  • 061750Z 11003KT 070V130 9999 BKN048 03/M02 Q1036
  • 061720Z 06004KT 030V100 9999 OVC042 03/M02 Q1037
  • 061650Z 05006KT 020V090 9999 FEW029 BKN036 03/M01 Q1036
  • 061620Z 04009KT 9999 OVC029 03/M01 Q1036
  • 061550Z 03010KT 9999 OVC031 03/M01 Q1036

TAF TAF EDTL
Valid from the 06 at 18:00 until the 07 at 00:00 UTC


061700Z 0618/0624 03006KT 9999 BKN030
PROB30
TEMPO 0620/0622 4000 -SHSN BKN020CB



MET'MAP, your aeronautical weather chart ! - Copyright ORBIFLY December 2007 - Disclaimer

ORBIFLY MET'MAP TEAM :

Programming & Development : Alexandra Zaïnal
Original concept : Baudouin d'Aumeries
Technical & hardware support : Manuel Goepfert
Assistance : Marc-Olivier Méhu




SOURCES & CREDITS :

   NOAA